Time;durP1;ratioP1;P1;durP2;ratioP2;P2;SDS_P1;SDS_P2;PMS_P1;PMS_P2;Temp;Humidity;BMP_temperature;BMP_pressure;BME280_temperature;BME280_humidity;BME280_pressure;Samples;Min_cycle;Max_cycle;Signal;HPM_P1;HPM_P2
2022/02/19 00:00:05;;;;;;;7.20;3.60;;;;;;;10.88;68.68;97282.23;108039;1270;68235;-75
2022/02/19 00:02:52;;;;;;;6.80;4.10;;;;;;;10.90;68.81;97295.70;108162;1270;74552;-78
2022/02/19 00:05:20;;;;;;;7.70;3.90;;;;;;;10.91;68.67;97299.13;108106;1270;61378;-79
2022/02/19 00:07:47;;;;;;;4.70;3.20;;;;;;;10.94;68.76;97313.09;105069;1270;62105;-79
2022/02/19 00:10:14;;;;;;;6.70;2.80;;;;;;;11.03;68.16;97321.48;105215;1270;75123;-78
2022/02/19 00:12:40;;;;;;;4.20;2.60;;;;;;;11.22;68.24;97341.15;105326;1270;69226;-78
2022/02/19 00:15:07;;;;;;;7.60;2.40;;;;;;;11.38;68.00;97366.63;105217;1270;73700;-78
2022/02/19 00:17:34;;;;;;;4.90;2.70;;;;;;;11.51;67.48;97379.98;105184;1270;61399;-79
2022/02/19 00:20:01;;;;;;;4.10;1.80;;;;;;;11.57;67.36;97393.46;105171;1270;62085;-78
2022/02/19 00:22:29;;;;;;;4.00;2.00;;;;;;;11.55;66.83;97405.58;105236;1270;74934;-78
2022/02/19 00:24:56;;;;;;;3.90;2.20;;;;;;;11.49;66.24;97398.33;105184;1270;69780;-77
2022/02/19 00:27:22;;;;;;;3.90;2.40;;;;;;;11.42;66.23;97403.38;105167;1270;73443;-78
2022/02/19 00:29:48;;;;;;;3.60;2.10;;;;;;;11.38;65.12;97408.97;105174;1270;61237;-78
2022/02/19 00:32:15;;;;;;;3.60;2.30;;;;;;;11.38;65.15;97422.04;105185;1270;61391;-77
2022/02/19 00:34:42;;;;;;;5.10;2.00;;;;;;;11.37;64.92;97424.54;105153;1270;61402;-77
2022/02/19 00:37:09;;;;;;;2.10;1.80;;;;;;;11.36;64.38;97428.14;105229;1270;69173;-78
2022/02/19 00:39:36;;;;;;;4.20;1.70;;;;;;;11.34;63.88;97435.65;105148;1270;61250;-77
2022/02/19 00:42:05;;;;;;;2.40;1.60;;;;;;;11.33;63.34;97432.05;105171;1270;61152;-77
2022/02/19 00:44:33;;;;;;;3.20;1.90;;;;;;;11.30;62.77;97426.98;105215;1270;61303;-79
2022/02/19 00:47:00;;;;;;;5.20;1.90;;;;;;;11.27;62.63;97432.58;105158;1270;76042;-77
2022/02/19 00:49:27;;;;;;;3.80;2.00;;;;;;;11.24;62.45;97437.89;105198;1271;68855;-79
2022/02/19 00:51:54;;;;;;;4.40;1.70;;;;;;;11.18;62.89;97426.26;105180;1270;74117;-79
2022/02/19 00:54:21;;;;;;;3.30;1.50;;;;;;;11.14;62.30;97428.80;104949;1271;61361;-79
2022/02/19 00:56:47;;;;;;;2.90;1.70;;;;;;;11.11;61.33;97432.15;105188;1270;61145;-80
2022/02/19 00:59:14;;;;;;;4.30;2.30;;;;;;;11.05;61.14;97448.83;105082;1270;76175;-79
2022/02/19 01:01:41;;;;;;;4.00;1.50;;;;;;;11.00;61.09;97453.42;105172;1270;69098;-81
2022/02/19 01:04:08;;;;;;;2.40;1.40;;;;;;;10.93;61.17;97461.93;105183;1270;73501;-82
2022/02/19 01:06:35;;;;;;;1.70;0.90;;;;;;;10.84;60.62;97455.66;104853;1272;61317;-79
2022/02/19 01:09:02;;;;;;;1.00;0.90;;;;;;;10.75;60.49;97453.63;105002;1271;61387;-78
2022/02/19 01:11:29;;;;;;;3.00;1.00;;;;;;;10.62;60.66;97458.73;104976;1271;75183;-77
2022/02/19 01:13:56;;;;;;;1.70;0.50;;;;;;;10.50;60.14;97471.66;105185;1270;70121;-79
2022/02/19 01:16:22;;;;;;;1.30;0.70;;;;;;;10.40;59.46;97462.31;105149;1270;74199;-78
2022/02/19 01:18:49;;;;;;;4.00;0.90;;;;;;;10.27;58.87;97440.90;104933;1270;61288;-77
2022/02/19 01:21:17;;;;;;;1.60;0.70;;;;;;;10.18;58.85;97439.93;105190;1270;61260;-78
2022/02/19 01:23:44;;;;;;;1.20;0.70;;;;;;;10.11;59.15;97439.50;105119;1270;74236;-78
2022/02/19 01:26:11;;;;;;;1.60;0.70;;;;;;;10.03;59.14;97471.23;105179;1270;69372;-79
2022/02/19 01:28:37;;;;;;;2.30;1.10;;;;;;;9.98;58.84;97488.27;105128;1270;74259;-78
2022/02/19 01:31:05;;;;;;;1.00;0.80;;;;;;;9.95;58.73;97494.01;105092;1270;61202;-77
2022/02/19 01:33:32;;;;;;;1.90;0.70;;;;;;;9.93;59.39;97496.88;105165;1270;62125;-76
2022/02/19 01:36:00;;;;;;;1.50;0.80;;;;;;;9.91;59.43;97490.84;105198;1271;75711;-75
2022/02/19 01:38:28;;;;;;;2.10;1.10;;;;;;;9.89;59.81;97496.27;104957;1271;69816;-77
2022/02/19 01:40:55;;;;;;;1.90;1.20;;;;;;;9.88;60.17;97493.17;105318;1270;73324;-77
2022/02/19 01:43:21;;;;;;;2.30;1.30;;;;;;;9.84;60.15;97493.88;105154;1270;61266;-77
2022/02/19 01:45:48;;;;;;;2.50;1.20;;;;;;;9.82;59.75;97503.85;105170;1270;61247;-77
2022/02/19 01:48:16;;;;;;;2.10;1.20;;;;;;;9.79;59.79;97499.16;105175;1270;74974;-78
2022/02/19 01:50:43;;;;;;;2.70;1.20;;;;;;;9.76;58.56;97500.80;105190;1270;69426;-78
2022/02/19 01:53:10;;;;;;;1.80;0.50;;;;;;;9.75;57.08;97509.08;105165;1271;73844;-78
2022/02/19 01:55:36;;;;;;;2.60;0.80;;;;;;;9.77;54.40;97512.94;105334;1270;61327;-75
2022/02/19 01:58:05;;;;;;;1.70;0.40;;;;;;;9.77;54.21;97515.41;105171;1270;61787;-79
2022/02/19 02:00:32;;;;;;;3.10;0.60;;;;;;;9.76;53.86;97512.02;105219;1270;75144;-79
2022/02/19 02:03:00;;;;;;;1.60;0.70;;;;;;;9.73;53.23;97517.23;104940;1271;69433;-79
2022/02/19 02:05:27;;;;;;;1.70;0.40;;;;;;;9.68;52.26;97510.50;105216;1270;73321;-77
2022/02/19 02:07:54;;;;;;;0.70;0.50;;;;;;;9.66;51.59;97511.95;105146;1270;61194;-78
2022/02/19 02:10:21;;;;;;;1.10;0.40;;;;;;;9.66;50.75;97513.91;105219;1270;61175;-78
2022/02/19 02:12:48;;;;;;;1.00;0.60;;;;;;;9.64;50.32;97521.88;104963;1271;75209;-78
2022/02/19 02:15:31;;;;;;;2.30;0.60;;;;;;;9.62;50.20;97525.59;105129;1271;61457;-77
2022/02/19 02:17:59;;;;;;;0.90;0.50;;;;;;;9.59;50.88;97529.60;105188;1271;73211;-77
2022/02/19 02:20:27;;;;;;;2.20;0.80;;;;;;;9.55;51.15;97536.89;105194;1271;61303;-79
2022/02/19 02:22:54;;;;;;;1.70;0.80;;;;;;;9.49;51.24;97536.88;105066;1272;61737;-78
2022/02/19 02:25:26;;;;;;;1.60;0.60;;;;;;;9.45;51.73;97546.08;105197;1271;76206;-78
2022/02/19 02:27:52;;;;;;;2.10;1.20;;;;;;;9.40;52.54;97547.84;105180;1270;69375;-76
2022/02/19 02:30:19;;;;;;;2.20;1.10;;;;;;;9.38;53.37;97550.77;105160;1271;72818;-77
2022/02/19 02:32:46;;;;;;;4.80;1.00;;;;;;;9.34;54.07;97559.21;105046;1271;61352;-77
2022/02/19 02:35:14;;;;;;;3.40;1.40;;;;;;;9.34;54.80;97554.80;105187;1270;61391;-76
2022/02/19 02:37:41;;;;;;;1.70;1.10;;;;;;;9.32;54.86;97560.28;105192;1271;75307;-77
2022/02/19 02:40:09;;;;;;;1.20;1.10;;;;;;;9.32;54.64;97564.73;104906;1272;69221;-79
2022/02/19 02:42:35;;;;;;;1.90;1.10;;;;;;;9.33;54.04;97557.04;105109;1271;73411;-78
2022/02/19 02:45:03;;;;;;;2.30;1.20;;;;;;;9.34;53.93;97567.17;105148;1271;61292;-77
2022/02/19 02:47:29;;;;;;;3.80;1.30;;;;;;;9.36;53.79;97573.45;105168;1270;61406;-78
2022/02/19 02:49:56;;;;;;;2.20;0.70;;;;;;;9.35;52.62;97590.15;105243;1271;76658;-77
2022/02/19 02:52:22;;;;;;;2.20;0.70;;;;;;;9.36;51.46;97594.66;105182;1271;69218;-78
2022/02/19 02:54:49;;;;;;;1.60;0.90;;;;;;;9.39;50.47;97602.20;105131;1271;61151;-78
2022/02/19 02:57:15;;;;;;;2.90;0.80;;;;;;;9.40;50.70;97598.58;105161;1270;61365;-75
2022/02/19 02:59:42;;;;;;;2.10;0.70;;;;;;;9.39;50.56;97618.34;105109;1271;61217;-78
2022/02/19 03:02:09;;;;;;;1.20;0.70;;;;;;;9.37;50.97;97617.09;105084;1271;61292;-78
2022/02/19 03:04:36;;;;;;;0.90;0.70;;;;;;;9.33;50.97;97625.21;105116;1271;69133;-78
2022/02/19 03:07:02;;;;;;;1.70;0.70;;;;;;;9.30;50.45;97619.78;105169;1271;72681;-79
2022/02/19 03:09:29;;;;;;;1.90;0.70;;;;;;;9.29;50.51;97622.59;105174;1271;61395;-78
2022/02/19 03:11:56;;;;;;;2.80;0.90;;;;;;;9.24;50.50;97636.05;105017;1271;61358;-77
2022/02/19 03:14:22;;;;;;;2.50;0.80;;;;;;;9.18;50.81;97639.76;105051;1270;61339;-79
2022/02/19 03:16:49;;;;;;;1.70;0.80;;;;;;;9.11;49.68;97647.46;104964;1272;61285;-77
2022/02/19 03:19:15;;;;;;;1.70;0.50;;;;;;;9.08;49.47;97647.02;105124;1270;61288;-79
2022/02/19 03:21:42;;;;;;;2.10;0.70;;;;;;;9.04;49.00;97652.83;105146;1271;61370;-78
2022/02/19 03:24:09;;;;;;;1.50;1.10;;;;;;;8.98;48.60;97655.96;105176;1271;61366;-78
2022/02/19 03:26:35;;;;;;;2.40;0.40;;;;;;;8.93;48.69;97665.59;105123;1270;76086;-77
2022/02/19 03:29:02;;;;;;;1.70;0.40;;;;;;;8.87;48.21;97672.11;105155;1271;61217;-78
2022/02/19 03:31:28;;;;;;;1.50;0.50;;;;;;;8.83;48.78;97673.47;104938;1270;73235;-77
2022/02/19 03:33:55;;;;;;;3.00;0.60;;;;;;;8.78;48.51;97668.95;105167;1271;61269;-77
2022/02/19 03:36:22;;;;;;;2.00;0.60;;;;;;;8.75;48.69;97668.45;105050;1274;61204;-77
2022/02/19 03:38:49;;;;;;;1.40;0.70;;;;;;;8.70;48.58;97676.27;105174;1271;75538;-78
2022/02/19 03:41:15;;;;;;;1.50;0.50;;;;;;;8.66;48.86;97663.31;105153;1270;61333;-77
2022/02/19 03:43:42;;;;;;;2.30;0.60;;;;;;;8.61;48.52;97666.01;105210;1271;73235;-77
2022/02/19 03:46:08;;;;;;;1.50;0.50;;;;;;;8.59;48.10;97673.13;105197;1271;61269;-78
2022/02/19 03:48:36;;;;;;;1.20;0.50;;;;;;;8.59;48.20;97682.35;105239;1271;61198;-79
2022/02/19 03:51:05;;;;;;;2.60;0.80;;;;;;;8.59;48.37;97686.74;105206;1271;75507;-76
2022/02/19 03:53:31;;;;;;;1.70;0.50;;;;;;;8.55;48.30;97686.50;105248;1271;68920;-78
2022/02/19 03:55:58;;;;;;;0.80;0.50;;;;;;;8.52;48.36;97684.40;105188;1271;72734;-76
2022/02/19 03:58:24;;;;;;;0.70;0.40;;;;;;;8.49;48.70;97679.77;105192;1271;61363;-77
2022/02/19 04:00:51;;;;;;;2.10;0.60;;;;;;;8.44;48.73;97681.58;105213;1271;61342;-78
2022/02/19 04:03:18;;;;;;;1.30;0.90;;;;;;;8.41;47.98;97672.92;105204;1270;76074;-78
2022/02/19 04:05:46;;;;;;;3.40;0.80;;;;;;;8.42;47.67;97688.41;105122;1271;69127;-74
2022/02/19 04:08:13;;;;;;;1.10;0.50;;;;;;;8.44;48.04;97684.41;105195;1271;73089;-78
2022/02/19 04:10:40;;;;;;;1.50;0.50;;;;;;;8.43;48.07;97684.80;105220;1271;61272;-76
2022/02/19 04:13:06;;;;;;;1.70;0.70;;;;;;;8.40;48.17;97691.57;105160;1270;61154;-77
2022/02/19 04:15:33;;;;;;;2.00;0.80;;;;;;;8.37;48.13;97688.60;105163;1270;76295;-76
2022/02/19 04:18:00;;;;;;;3.40;0.60;;;;;;;8.33;48.36;97695.31;105182;1270;70431;-74
2022/02/19 04:20:26;;;;;;;0.90;0.50;;;;;;;8.28;48.48;97701.73;105162;1270;72936;-77
2022/02/19 04:22:53;;;;;;;8.00;3.30;;;;;;;8.22;48.56;97700.09;105207;1270;61223;-77
2022/02/19 04:25:20;;;;;;;6.40;2.70;;;;;;;8.15;48.72;97704.11;105259;1270;61285;-78
2022/02/19 04:27:46;;;;;;;5.40;1.40;;;;;;;8.10;48.32;97708.71;105211;1270;76103;-78
2022/02/19 04:30:13;;;;;;;3.30;0.90;;;;;;;8.07;48.75;97713.73;105221;1270;69158;-76
2022/02/19 04:32:39;;;;;;;1.90;0.90;;;;;;;8.00;49.16;97724.58;105199;1270;72573;-77
2022/02/19 04:35:07;;;;;;;2.50;0.90;;;;;;;7.94;49.52;97727.71;105198;1270;61391;-77
2022/02/19 04:37:33;;;;;;;2.00;0.70;;;;;;;7.87;49.59;97732.80;105034;1274;61136;-77
2022/02/19 04:40:00;;;;;;;3.90;0.80;;;;;;;7.84;49.86;97737.48;105233;1270;75169;-76
2022/02/19 04:42:27;;;;;;;1.50;0.70;;;;;;;7.79;50.22;97740.67;105014;1270;69304;-76
2022/02/19 04:44:53;;;;;;;1.20;0.50;;;;;;;7.71;50.02;97749.45;105129;1269;73417;-76
2022/02/19 04:47:20;;;;;;;2.40;0.80;;;;;;;7.67;50.11;97747.22;105297;1270;61480;-75
2022/02/19 04:49:47;;;;;;;1.60;0.70;;;;;;;7.63;50.25;97752.29;105267;1270;61277;-76
2022/02/19 04:52:14;;;;;;;1.20;0.60;;;;;;;7.59;50.35;97767.47;105027;1270;76432;-76
2022/02/19 04:54:41;;;;;;;1.70;0.70;;;;;;;7.54;50.55;97766.73;105358;1270;70204;-77
2022/02/19 04:57:07;;;;;;;1.60;0.80;;;;;;;7.51;50.71;97770.73;105039;1274;73368;-76
2022/02/19 04:59:34;;;;;;;3.80;0.90;;;;;;;7.46;50.97;97777.91;105070;1271;61343;-77
2022/02/19 05:02:00;;;;;;;1.70;0.80;;;;;;;7.42;51.08;97783.75;105012;1271;61675;-76
2022/02/19 05:04:27;;;;;;;1.80;0.80;;;;;;;7.41;51.14;97786.80;105208;1270;75216;-77
2022/02/19 05:06:54;;;;;;;2.80;0.60;;;;;;;7.40;51.37;97786.52;105223;1270;69220;-76
2022/02/19 05:09:20;;;;;;;2.10;0.70;;;;;;;7.38;51.01;97784.19;105220;1270;61774;-76
2022/02/19 05:11:47;;;;;;;2.10;0.60;;;;;;;7.37;51.14;97787.27;105194;1270;61290;-77
2022/02/19 05:14:13;;;;;;;1.50;0.80;;;;;;;7.33;51.10;97790.23;105259;1270;61337;-76
2022/02/19 05:16:40;;;;;;;4.10;0.80;;;;;;;7.30;51.25;97790.64;105241;1270;61328;-77
2022/02/19 05:19:07;;;;;;;1.30;0.50;;;;;;;7.24;51.20;97789.48;105024;1271;61401;-77
2022/02/19 05:21:34;;;;;;;1.50;0.90;;;;;;;7.22;51.04;97791.93;105234;1270;73484;-78
2022/02/19 05:24:01;;;;;;;1.70;0.70;;;;;;;7.21;51.05;97795.87;105181;1270;61395;-77
2022/02/19 05:26:27;;;;;;;1.50;0.70;;;;;;;7.19;51.17;97796.67;105163;1270;61308;-77
2022/02/19 05:28:54;;;;;;;2.10;0.90;;;;;;;7.15;51.35;97794.33;105311;1270;61328;-78
2022/02/19 05:31:20;;;;;;;2.60;1.00;;;;;;;7.11;51.37;97801.55;105378;1270;61288;-78
2022/02/19 05:33:47;;;;;;;2.50;1.10;;;;;;;7.08;51.31;97795.03;105452;1270;61194;-77
2022/02/19 05:36:14;;;;;;;4.10;1.00;;;;;;;7.09;51.65;97797.93;105641;1270;61320;-76
2022/02/19 05:38:41;;;;;;;3.50;1.00;;;;;;;7.05;51.91;97804.27;105725;1270;59849;-77
2022/02/19 05:41:08;;;;;;;3.10;0.90;;;;;;;6.99;52.04;97806.79;107295;1270;75213;-76
2022/02/19 05:43:34;;;;;;;4.00;1.10;;;;;;;6.95;51.74;97809.93;107256;1270;69356;-77
2022/02/19 05:46:01;;;;;;;3.10;0.90;;;;;;;6.96;51.90;97804.16;107523;1270;61262;-76
2022/02/19 05:48:28;;;;;;;3.40;1.00;;;;;;;6.95;51.90;97814.65;107357;1270;61512;-77
2022/02/19 05:50:55;;;;;;;2.90;0.70;;;;;;;6.97;51.68;97821.81;105165;1270;61280;-79
2022/02/19 05:53:21;;;;;;;4.00;1.00;;;;;;;6.98;51.45;97823.14;105190;1270;75583;-76
2022/02/19 05:55:48;;;;;;;4.00;0.80;;;;;;;7.00;51.37;97827.25;105175;1270;69117;-76
2022/02/19 05:58:15;;;;;;;2.10;0.90;;;;;;;7.00;51.43;97831.98;105201;1270;74421;-82
2022/02/19 06:00:42;;;;;;;2.50;1.00;;;;;;;7.00;51.40;97833.05;105149;1270;61289;-79
2022/02/19 06:03:08;;;;;;;2.70;1.20;;;;;;;6.99;51.62;97843.30;105006;1270;61214;-77
2022/02/19 06:05:35;;;;;;;5.30;0.90;;;;;;;6.98;51.56;97835.12;105115;1270;61194;-78
2022/02/19 06:08:02;;;;;;;4.00;1.00;;;;;;;6.98;51.76;97844.48;104907;1272;61263;-77
2022/02/19 06:10:28;;;;;;;3.80;1.10;;;;;;;6.97;51.70;97848.24;105155;1270;73471;-77
2022/02/19 06:12:55;;;;;;;4.30;0.80;;;;;;;6.97;51.45;97854.80;105175;1270;61413;-78
2022/02/19 06:15:22;;;;;;;1.80;0.80;;;;;;;7.00;51.59;97858.98;105106;1270;61206;-78
2022/02/19 06:17:48;;;;;;;4.00;1.00;;;;;;;7.01;51.77;97855.08;105146;1270;75988;-78
2022/02/19 06:20:15;;;;;;;3.90;0.90;;;;;;;6.99;51.88;97864.17;105179;1270;70216;-78
2022/02/19 06:22:41;;;;;;;2.70;0.90;;;;;;;6.98;51.89;97863.70;105238;1270;73283;-77
2022/02/19 06:25:09;;;;;;;5.10;2.40;;;;;;;6.98;52.22;97871.50;105188;1270;61148;-78
2022/02/19 06:27:46;;;;;;;3.60;1.60;;;;;;;6.96;52.30;97879.98;105197;1270;61148;-75
2022/02/19 06:30:16;;;;;;;5.00;1.70;;;;;;;6.96;52.24;97879.59;105234;1270;75076;-78
2022/02/19 06:32:43;;;;;;;4.00;1.90;;;;;;;6.97;52.15;97875.24;105288;1270;70329;-77
2022/02/19 06:35:10;;;;;;;3.10;1.40;;;;;;;6.99;52.32;97884.85;105309;1270;73212;-78
2022/02/19 06:37:41;;;;;;;3.40;1.20;;;;;;;6.97;52.12;97880.04;105150;1270;61359;-77
2022/02/19 06:40:11;;;;;;;4.00;1.30;;;;;;;6.97;52.01;97890.48;105289;1270;61275;-77
2022/02/19 06:42:38;;;;;;;5.10;2.30;;;;;;;6.97;52.10;97895.58;105442;1270;75148;-78
2022/02/19 06:45:06;;;;;;;2.60;1.50;;;;;;;6.95;51.98;97898.36;105409;1270;69258;-76
2022/02/19 06:47:33;;;;;;;6.00;1.80;;;;;;;6.96;51.93;97902.93;105068;1270;73442;-78
2022/02/19 06:50:01;;;;;;;3.10;1.40;;;;;;;6.98;51.91;97914.98;105205;1270;61299;-77
2022/02/19 06:52:28;;;;;;;4.90;1.80;;;;;;;7.00;52.06;97923.45;105145;1270;61327;-78
2022/02/19 06:54:54;;;;;;;4.00;1.60;;;;;;;7.01;52.30;97922.19;105237;1270;75110;-77
2022/02/19 06:57:21;;;;;;;4.20;1.60;;;;;;;7.01;52.28;97926.73;105205;1269;69496;-78
2022/02/19 06:59:49;;;;;;;4.00;1.70;;;;;;;7.04;52.22;97923.90;104993;1270;73249;-77
2022/02/19 07:02:17;;;;;;;4.20;1.70;;;;;;;7.08;52.24;97923.96;105219;1270;61253;-78
2022/02/19 07:04:45;;;;;;;6.20;1.30;;;;;;;7.13;52.05;97911.63;105228;1270;61161;-76
2022/02/19 07:07:13;;;;;;;2.80;1.00;;;;;;;7.17;51.94;97924.02;105315;1270;73442;-76
2022/02/19 07:09:39;;;;;;;2.10;1.20;;;;;;;7.25;51.07;97927.86;105202;1270;70456;-78
2022/02/19 07:12:06;;;;;;;3.90;1.00;;;;;;;7.35;51.00;97932.88;105210;1270;72415;-78
2022/02/19 07:14:33;;;;;;;5.60;1.80;;;;;;;7.42;51.72;97944.54;105405;1270;61315;-76
2022/02/19 07:17:04;;;;;;;3.90;1.40;;;;;;;7.45;51.61;97946.23;105184;1270;61364;-77
2022/02/19 07:19:34;;;;;;;3.50;1.40;;;;;;;7.49;51.99;97959.73;105206;1270;76514;-77
2022/02/19 07:22:02;;;;;;;3.20;1.40;;;;;;;7.52;51.64;97972.44;105211;1270;69842;-77
2022/02/19 07:24:29;;;;;;;3.70;1.50;;;;;;;7.55;51.08;97979.67;105203;1270;73323;-77
2022/02/19 07:27:00;;;;;;;4.50;1.40;;;;;;;7.57;49.48;97979.15;105252;1270;61298;-78
2022/02/19 07:29:26;;;;;;;3.40;1.30;;;;;;;7.62;49.36;97987.16;105107;1271;61318;-77
2022/02/19 07:31:53;;;;;;;3.40;1.40;;;;;;;7.64;49.33;97996.00;105283;1270;74593;-79
2022/02/19 07:34:20;;;;;;;3.10;0.90;;;;;;;7.67;48.91;98008.52;105294;1270;61368;-77
2022/02/19 07:36:47;;;;;;;4.60;1.20;;;;;;;7.70;47.69;98004.92;105255;1270;73946;-78
2022/02/19 07:39:13;;;;;;;9.90;1.40;;;;;;;7.74;46.96;98010.49;105207;1270;61387;-78
2022/02/19 07:41:40;;;;;;;4.40;1.30;;;;;;;7.79;45.51;98008.41;105224;1270;61251;-78
2022/02/19 07:44:06;;;;;;;5.10;1.60;;;;;;;7.83;46.38;98004.59;104953;1270;74751;-78
2022/02/19 07:46:33;;;;;;;4.30;1.40;;;;;;;7.86;46.88;98010.00;105234;1270;69180;-77
2022/02/19 07:58:18;;;;;;;3.40;1.70;;;;;;;7.89;46.47;98012.59;105053;1270;73429;-76
2022/02/19 08:00:06;;;;;;;5.10;1.20;;;;;;;8.02;46.61;98020.04;105267;1270;69191;-77
2022/02/19 08:02:32;;;;;;;4.20;1.40;;;;;;;8.05;46.48;98026.31;105186;1268;72289;-78
2022/02/19 08:04:59;;;;;;;3.50;0.90;;;;;;;8.08;46.08;98023.40;105230;1270;61323;-77
2022/02/19 08:07:25;;;;;;;5.50;1.50;;;;;;;8.12;45.24;98028.46;105094;1270;61160;-79
2022/02/19 08:09:52;;;;;;;3.70;1.40;;;;;;;8.16;45.25;98035.96;105198;1270;75628;-76
2022/02/19 08:12:18;;;;;;;2.30;1.20;;;;;;;8.20;45.08;98049.48;105261;1270;61243;-77
2022/02/19 08:14:45;;;;;;;2.00;0.90;;;;;;;8.24;44.98;98051.14;105150;1270;61384;-78
2022/02/19 08:17:11;;;;;;;6.00;1.10;;;;;;;8.26;44.49;98051.86;105090;1270;61317;-78
2022/02/19 08:19:38;;;;;;;4.60;1.30;;;;;;;8.29;44.45;98055.89;105294;1270;61484;-77
2022/02/19 08:22:05;;;;;;;4.00;1.30;;;;;;;8.33;44.56;98070.98;105188;1270;61284;-77
2022/02/19 08:24:31;;;;;;;2.90;1.40;;;;;;;8.34;44.85;98074.66;105238;1270;70524;-78
2022/02/19 08:26:58;;;;;;;6.10;1.80;;;;;;;8.46;45.53;98079.46;105017;1270;74283;-77
2022/02/19 08:29:25;;;;;;;4.40;1.60;;;;;;;8.63;44.97;98088.16;105188;1270;61288;-78
2022/02/19 08:31:51;;;;;;;3.90;1.10;;;;;;;8.67;43.32;98097.04;105223;1269;61298;-78
2022/02/19 08:34:18;;;;;;;4.30;1.10;;;;;;;8.70;42.33;98100.52;105233;1270;61285;-78
2022/02/19 08:36:45;;;;;;;4.80;1.20;;;;;;;8.76;42.82;98096.70;106798;1270;69773;-78
2022/02/19 08:39:11;;;;;;;6.90;1.50;;;;;;;8.81;41.63;98096.21;105965;1270;73752;-77
2022/02/19 08:41:38;;;;;;;4.60;1.50;;;;;;;8.83;41.81;98104.77;105173;1270;61279;-77
2022/02/19 08:44:04;;;;;;;2.70;1.10;;;;;;;8.82;41.10;98113.34;105199;1270;61355;-77
2022/02/19 08:46:31;;;;;;;3.40;1.50;;;;;;;8.77;40.90;98117.76;105212;1270;61270;-78
2022/02/19 08:48:58;;;;;;;4.50;1.20;;;;;;;8.71;40.66;98117.09;105224;1270;69117;-78
2022/02/19 08:51:24;;;;;;;4.10;1.40;;;;;;;8.71;40.61;98113.23;105198;1270;74514;-78
2022/02/19 08:53:51;;;;;;;2.90;1.20;;;;;;;8.73;40.55;98118.05;105231;1270;61389;-79
2022/02/19 08:56:17;;;;;;;4.10;1.40;;;;;;;8.73;40.28;98122.95;105193;1270;61137;-77
2022/02/19 08:58:45;;;;;;;4.10;1.10;;;;;;;8.75;38.55;98130.12;105051;1270;75446;-76
2022/02/19 09:01:12;;;;;;;4.50;1.10;;;;;;;8.74;39.55;98129.09;105198;1270;69168;-76
2022/02/19 09:03:38;;;;;;;5.90;1.40;;;;;;;8.76;40.26;98125.23;104966;1270;71408;-77
2022/02/19 09:06:05;;;;;;;3.20;1.00;;;;;;;8.80;39.65;98134.02;105177;1270;61171;-77
2022/02/19 09:08:31;;;;;;;4.60;1.60;;;;;;;8.83;39.44;98140.54;105254;1270;61337;-76
2022/02/19 09:10:58;;;;;;;3.50;1.10;;;;;;;8.87;39.38;98138.99;105177;1270;61346;-79
2022/02/19 09:13:25;;;;;;;3.90;1.30;;;;;;;8.92;38.97;98139.30;105207;1270;69391;-77
2022/02/19 09:15:51;;;;;;;5.70;1.60;;;;;;;8.98;38.90;98159.08;105204;1270;72610;-79
2022/02/19 09:18:18;;;;;;;4.20;1.40;;;;;;;9.07;38.54;98149.91;105209;1270;61481;-78
2022/02/19 09:20:45;;;;;;;2.10;0.80;;;;;;;9.11;38.21;98167.50;105032;1270;61227;-77
2022/02/19 09:23:11;;;;;;;2.20;1.10;;;;;;;9.12;36.51;98174.55;105187;1270;61284;-80
2022/02/19 09:25:38;;;;;;;4.20;1.80;;;;;;;9.12;35.65;98176.15;105235;1270;70688;-81
2022/02/19 09:28:04;;;;;;;3.40;1.10;;;;;;;9.10;35.68;98191.88;105154;1270;73743;-77
2022/02/19 09:30:31;;;;;;;3.20;1.40;;;;;;;9.13;35.48;98177.27;105175;1270;61329;-75
2022/02/19 09:33:00;;;;;;;4.70;1.50;;;;;;;9.13;35.19;98184.55;105219;1270;62059;-76
2022/02/19 09:35:27;;;;;;;2.90;1.10;;;;;;;9.17;35.35;98194.01;104968;1270;75393;-78
2022/02/19 09:37:54;;;;;;;4.50;1.00;;;;;;;9.29;36.62;98193.25;105217;1270;70929;-78
2022/02/19 09:40:20;;;;;;;3.10;1.20;;;;;;;9.47;37.02;98207.75;105216;1270;73362;-78
2022/02/19 09:42:49;;;;;;;6.70;1.80;;;;;;;9.58;37.07;98200.88;105157;1270;61464;-77
2022/02/19 09:45:17;;;;;;;4.10;1.20;;;;;;;9.63;37.57;98201.85;105229;1270;61776;-80
2022/02/19 09:47:44;;;;;;;2.70;1.00;;;;;;;9.70;37.23;98212.56;105204;1270;76923;-78
2022/02/19 09:50:11;;;;;;;4.40;1.00;;;;;;;9.67;36.86;98206.51;105186;1270;70744;-78
2022/02/19 09:52:39;;;;;;;2.80;1.00;;;;;;;9.75;37.12;98207.38;105189;1270;74399;-78
2022/02/19 09:55:06;;;;;;;2.80;1.00;;;;;;;9.88;36.86;98208.67;105145;1270;61309;-78
2022/02/19 09:57:33;;;;;;;3.80;1.50;;;;;;;10.05;37.03;98213.91;105212;1270;61308;-78
2022/02/19 10:00:00;;;;;;;2.90;1.40;;;;;;;10.13;36.73;98227.87;105200;1270;61153;-77
2022/02/19 10:02:34;;;;;;;3.80;1.30;;;;;;;10.15;37.15;98240.52;105235;1270;70537;-76
2022/02/19 10:05:09;;;;;;;2.60;1.30;;;;;;;10.22;36.99;98241.57;105270;1270;73384;-78
2022/02/19 10:07:36;;;;;;;4.10;1.30;;;;;;;10.36;36.68;98238.92;105222;1270;61301;-77
2022/02/19 10:10:03;;;;;;;1.90;0.80;;;;;;;10.45;35.86;98240.13;105079;1270;61310;-76
2022/02/19 10:12:47;;;;;;;4.90;1.20;;;;;;;10.43;35.76;98241.89;104989;1270;75390;-77
2022/02/19 10:15:13;;;;;;;3.00;1.00;;;;;;;10.38;35.81;98257.79;105366;1267;69481;-78
2022/02/19 10:17:40;;;;;;;2.80;1.00;;;;;;;10.26;35.07;98273.38;105172;1269;74121;-78
2022/02/19 10:20:09;;;;;;;3.00;1.10;;;;;;;10.12;34.85;98278.36;105193;1270;61302;-77
2022/02/19 10:22:40;;;;;;;6.10;1.30;;;;;;;10.03;35.19;98290.76;105249;1270;61175;-76
2022/02/19 10:25:09;;;;;;;4.50;1.10;;;;;;;9.96;35.20;98287.59;105243;1270;75706;-76
2022/02/19 10:27:45;;;;;;;5.40;1.50;;;;;;;9.96;34.51;98288.30;105247;1270;69303;-76
2022/02/19 10:30:17;;;;;;;3.60;1.00;;;;;;;9.95;35.51;98303.22;104962;1270;73243;-77
2022/02/19 10:32:59;;;;;;;2.50;0.90;;;;;;;9.93;35.49;98293.63;105046;1270;61329;-77
2022/02/19 10:35:33;;;;;;;4.40;1.30;;;;;;;9.83;35.15;98300.56;105118;1271;61357;-76
2022/02/19 10:38:07;;;;;;;3.30;1.00;;;;;;;9.73;34.63;98304.20;105310;1271;74264;-77
2022/02/19 10:40:42;;;;;;;4.30;1.00;;;;;;;9.62;34.27;98305.57;105863;1271;69246;-77
2022/02/19 10:43:13;;;;;;;2.70;1.20;;;;;;;9.56;34.33;98301.75;105587;1271;72236;-78
2022/02/19 10:45:59;;;;;;;;;;;;;;;9.53;34.97;98302.46;105161;1271;61464;-77
2022/02/19 10:48:27;;;;;;;4.00;1.10;;;;;;;9.48;35.05;98307.66;105224;1271;61015;-77
2022/02/19 10:51:08;;;;;;;4.00;1.10;;;;;;;9.42;34.75;98309.10;106029;1271;75160;-77
2022/02/19 10:53:36;;;;;;;3.00;1.10;;;;;;;9.43;35.22;98320.38;105176;1271;69164;-76
2022/02/19 10:56:17;;;;;;;2.90;1.30;;;;;;;9.42;35.62;98316.20;105261;1271;73379;-77
2022/02/19 10:59:16;;;;;;;3.10;1.10;;;;;;;9.48;35.69;98307.80;105192;1271;61364;-77
2022/02/19 11:01:49;;;;;;;7.30;3.10;;;;;;;9.41;35.67;98317.89;105053;1280;61357;-76
2022/02/19 11:04:21;;;;;;;5.60;2.40;;;;;;;9.37;35.54;98325.48;104865;1280;76434;-77
2022/02/19 11:06:49;;;;;;;6.50;3.30;;;;;;;9.42;35.68;98327.06;105592;1280;69539;-78
2022/02/19 11:09:16;;;;;;;4.40;1.10;;;;;;;9.57;35.33;98324.70;106290;1280;73384;-79
2022/02/19 11:11:45;;;;;;;5.00;1.20;;;;;;;9.69;34.94;98330.93;106912;1278;61288;-75
2022/02/19 11:14:14;;;;;;;2.80;1.20;;;;;;;9.78;34.73;98332.01;107029;1280;60948;-76
2022/02/19 11:16:42;;;;;;;3.30;1.40;;;;;;;9.83;34.90;98336.45;107262;1279;75181;-76
2022/02/19 11:19:09;;;;;;;5.70;3.30;;;;;;;9.98;35.34;98339.96;106558;1278;67333;-77
2022/02/19 11:21:38;;;;;;;4.90;1.50;;;;;;;9.96;35.12;98343.30;106472;1280;73551;-77
2022/02/19 11:24:09;;;;;;;2.90;1.80;;;;;;;9.81;34.60;98351.14;104434;1280;61366;-78
2022/02/19 11:26:37;;;;;;;2.90;1.20;;;;;;;9.59;34.60;98362.48;104628;1280;61777;-78
2022/02/19 11:29:14;;;;;;;3.30;1.40;;;;;;;9.45;35.43;98355.20;104612;1279;75273;-78
2022/02/19 11:31:44;;;;;;;2.70;1.20;;;;;;;9.34;35.36;98357.39;104571;1280;70227;-80
2022/02/19 11:34:11;;;;;;;4.80;1.30;;;;;;;9.24;35.03;98358.48;104660;1279;74375;-77
2022/02/19 11:36:38;;;;;;;3.30;1.50;;;;;;;9.17;35.66;98361.45;104574;1280;61250;-77
2022/02/19 11:39:05;;;;;;;7.30;2.60;;;;;;;9.13;36.08;98360.51;104986;1273;61897;-77
2022/02/19 11:41:40;;;;;;;4.70;1.40;;;;;;;9.14;35.79;98366.63;104965;1273;75443;-78